sensor_id;sensor_type;location;lat;lon;timestamp;temperature;humidity
36322;DHT22;23564;48.290;11.460;2023-03-11T00:00:43;2.90;99.90
36322;DHT22;23564;48.290;11.460;2023-03-11T00:03:11;2.90;99.90
36322;DHT22;23564;48.290;11.460;2023-03-11T00:05:40;2.90;99.90
36322;DHT22;23564;48.290;11.460;2023-03-11T00:08:07;2.80;99.90
36322;DHT22;23564;48.290;11.460;2023-03-11T00:10:36;2.80;99.90
36322;DHT22;23564;48.290;11.460;2023-03-11T00:13:03;2.80;99.90
36322;DHT22;23564;48.290;11.460;2023-03-11T00:15:30;2.80;99.90
36322;DHT22;23564;48.290;11.460;2023-03-11T00:17:56;2.80;99.90
36322;DHT22;23564;48.290;11.460;2023-03-11T00:20:34;2.80;93.00
36322;DHT22;23564;48.290;11.460;2023-03-11T00:23:00;2.90;99.90
36322;DHT22;23564;48.290;11.460;2023-03-11T00:25:28;2.90;37.80
36322;DHT22;23564;48.290;11.460;2023-03-11T00:27:55;2.90;82.00
36322;DHT22;23564;48.290;11.460;2023-03-11T00:30:21;3.00;66.00
36322;DHT22;23564;48.290;11.460;2023-03-11T00:32:49;2.90;73.10
36322;DHT22;23564;48.290;11.460;2023-03-11T00:35:17;2.90;40.20
36322;DHT22;23564;48.290;11.460;2023-03-11T00:37:45;2.90;54.40
36322;DHT22;23564;48.290;11.460;2023-03-11T00:40:14;2.80;56.10
36322;DHT22;23564;48.290;11.460;2023-03-11T00:42:39;2.80;2.50
36322;DHT22;23564;48.290;11.460;2023-03-11T00:45:05;2.80;37.60
36322;DHT22;23564;48.290;11.460;2023-03-11T00:47:31;2.80;56.10
36322;DHT22;23564;48.290;11.460;2023-03-11T00:49:57;2.70;45.40
36322;DHT22;23564;48.290;11.460;2023-03-11T00:52:22;2.70;33.90
36322;DHT22;23564;48.290;11.460;2023-03-11T00:54:48;2.70;62.20
36322;DHT22;23564;48.290;11.460;2023-03-11T00:57:13;2.60;64.30
36322;DHT22;23564;48.290;11.460;2023-03-11T00:59:39;2.60;51.60
36322;DHT22;23564;48.290;11.460;2023-03-11T01:02:05;2.60;70.50
36322;DHT22;23564;48.290;11.460;2023-03-11T01:04:30;2.60;87.20
36322;DHT22;23564;48.290;11.460;2023-03-11T01:06:56;2.50;93.10
36322;DHT22;23564;48.290;11.460;2023-03-11T01:09:21;2.50;99.60
36322;DHT22;23564;48.290;11.460;2023-03-11T01:11:47;2.50;60.00
36322;DHT22;23564;48.290;11.460;2023-03-11T01:14:13;2.50;16.00
36322;DHT22;23564;48.290;11.460;2023-03-11T01:16:38;2.50;1.00
36322;DHT22;23564;48.290;11.460;2023-03-11T01:19:04;2.50;1.00
36322;DHT22;23564;48.290;11.460;2023-03-11T01:21:30;2.40;1.00
36322;DHT22;23564;48.290;11.460;2023-03-11T01:23:55;2.40;1.00
36322;DHT22;23564;48.290;11.460;2023-03-11T01:26:21;2.40;1.00
36322;DHT22;23564;48.290;11.460;2023-03-11T01:28:47;2.40;1.00
36322;DHT22;23564;48.290;11.460;2023-03-11T01:31:12;2.40;1.00
36322;DHT22;23564;48.290;11.460;2023-03-11T01:33:38;2.40;1.00
36322;DHT22;23564;48.290;11.460;2023-03-11T01:36:04;2.40;1.00
36322;DHT22;23564;48.290;11.460;2023-03-11T01:38:30;2.40;1.00
36322;DHT22;23564;48.290;11.460;2023-03-11T01:40:56;2.30;1.00
36322;DHT22;23564;48.290;11.460;2023-03-11T01:43:45;2.30;1.00
36322;DHT22;23564;48.290;11.460;2023-03-11T01:46:18;2.30;1.00
36322;DHT22;23564;48.290;11.460;2023-03-11T01:48:56;2.20;1.00
36322;DHT22;23564;48.290;11.460;2023-03-11T01:51:29;2.20;1.00
36322;DHT22;23564;48.290;11.460;2023-03-11T01:53:58;2.20;1.00
36322;DHT22;23564;48.290;11.460;2023-03-11T01:56:25;2.20;1.00
36322;DHT22;23564;48.290;11.460;2023-03-11T01:58:52;2.10;1.00
36322;DHT22;23564;48.290;11.460;2023-03-11T02:01:20;2.20;1.00
36322;DHT22;23564;48.290;11.460;2023-03-11T02:03:46;2.10;1.00
36322;DHT22;23564;48.290;11.460;2023-03-11T02:06:17;2.10;1.00
36322;DHT22;23564;48.290;11.460;2023-03-11T02:08:43;2.10;1.00
36322;DHT22;23564;48.290;11.460;2023-03-11T02:11:15;2.00;1.00
36322;DHT22;23564;48.290;11.460;2023-03-11T02:13:42;2.00;1.00
36322;DHT22;23564;48.290;11.460;2023-03-11T02:16:09;2.00;1.00
36322;DHT22;23564;48.290;11.460;2023-03-11T02:18:36;1.90;1.00
36322;DHT22;23564;48.290;11.460;2023-03-11T02:26:22;1.90;1.00
36322;DHT22;23564;48.290;11.460;2023-03-11T02:28:50;1.90;1.00
36322;DHT22;23564;48.290;11.460;2023-03-11T02:31:17;1.80;1.00
36322;DHT22;23564;48.290;11.460;2023-03-11T02:33:44;1.80;1.00
36322;DHT22;23564;48.290;11.460;2023-03-11T02:36:40;1.80;1.00
36322;DHT22;23564;48.290;11.460;2023-03-11T02:39:08;1.80;1.00
36322;DHT22;23564;48.290;11.460;2023-03-11T02:41:36;1.80;1.00
36322;DHT22;23564;48.290;11.460;2023-03-11T02:44:04;1.80;1.00
36322;DHT22;23564;48.290;11.460;2023-03-11T02:46:31;1.70;1.00
36322;DHT22;23564;48.290;11.460;2023-03-11T02:48:56;1.70;1.00
36322;DHT22;23564;48.290;11.460;2023-03-11T02:51:24;1.70;1.00
36322;DHT22;23564;48.290;11.460;2023-03-11T02:53:53;1.70;1.00
36322;DHT22;23564;48.290;11.460;2023-03-11T02:56:21;1.80;1.00
36322;DHT22;23564;48.290;11.460;2023-03-11T02:58:46;1.80;1.00
36322;DHT22;23564;48.290;11.460;2023-03-11T03:01:12;1.80;1.00
36322;DHT22;23564;48.290;11.460;2023-03-11T03:03:38;1.80;1.00
36322;DHT22;23564;48.290;11.460;2023-03-11T03:06:04;1.70;1.00
36322;DHT22;23564;48.290;11.460;2023-03-11T03:08:30;1.70;1.00
36322;DHT22;23564;48.290;11.460;2023-03-11T03:10:55;1.70;1.00
36322;DHT22;23564;48.290;11.460;2023-03-11T03:13:21;1.60;1.00
36322;DHT22;23564;48.290;11.460;2023-03-11T03:15:46;1.60;1.00
36322;DHT22;23564;48.290;11.460;2023-03-11T03:18:12;1.60;1.00
36322;DHT22;23564;48.290;11.460;2023-03-11T03:20:38;1.60;1.00
36322;DHT22;23564;48.290;11.460;2023-03-11T03:23:04;1.60;1.00
36322;DHT22;23564;48.290;11.460;2023-03-11T03:25:29;1.60;1.00
36322;DHT22;23564;48.290;11.460;2023-03-11T03:27:55;1.60;1.00
36322;DHT22;23564;48.290;11.460;2023-03-11T03:30:20;1.60;1.00
36322;DHT22;23564;48.290;11.460;2023-03-11T03:32:46;1.60;1.00
36322;DHT22;23564;48.290;11.460;2023-03-11T03:35:11;1.60;1.00
36322;DHT22;23564;48.290;11.460;2023-03-11T03:37:37;1.50;1.00
36322;DHT22;23564;48.290;11.460;2023-03-11T03:40:04;1.50;1.00
36322;DHT22;23564;48.290;11.460;2023-03-11T03:42:33;1.50;1.00
36322;DHT22;23564;48.290;11.460;2023-03-11T03:44:59;1.50;7.30
36322;DHT22;23564;48.290;11.460;2023-03-11T03:47:24;1.50;16.30
36322;DHT22;23564;48.290;11.460;2023-03-11T03:49:50;1.50;30.80
36322;DHT22;23564;48.290;11.460;2023-03-11T03:52:15;1.50;35.80
36322;DHT22;23564;48.290;11.460;2023-03-11T03:54:41;1.50;22.10
36322;DHT22;23564;48.290;11.460;2023-03-11T03:57:07;1.50;41.40
36322;DHT22;23564;48.290;11.460;2023-03-11T03:59:32;1.40;46.00
36322;DHT22;23564;48.290;11.460;2023-03-11T04:01:58;1.40;82.20
36322;DHT22;23564;48.290;11.460;2023-03-11T04:04:24;1.40;54.80
36322;DHT22;23564;48.290;11.460;2023-03-11T04:06:50;1.40;99.90
36322;DHT22;23564;48.290;11.460;2023-03-11T04:09:15;1.30;99.90
36322;DHT22;23564;48.290;11.460;2023-03-11T04:11:41;1.30;99.90
36322;DHT22;23564;48.290;11.460;2023-03-11T04:14:07;1.30;99.90
36322;DHT22;23564;48.290;11.460;2023-03-11T04:16:32;1.30;99.90
36322;DHT22;23564;48.290;11.460;2023-03-11T04:18:58;1.30;99.90
36322;DHT22;23564;48.290;11.460;2023-03-11T04:21:23;1.30;99.90
36322;DHT22;23564;48.290;11.460;2023-03-11T04:23:49;1.30;99.90
36322;DHT22;23564;48.290;11.460;2023-03-11T04:26:15;1.30;99.90
36322;DHT22;23564;48.290;11.460;2023-03-11T04:28:41;1.30;99.90
36322;DHT22;23564;48.290;11.460;2023-03-11T04:31:06;1.30;99.90
36322;DHT22;23564;48.290;11.460;2023-03-11T04:33:32;1.30;99.90
36322;DHT22;23564;48.290;11.460;2023-03-11T04:35:58;1.30;99.90
36322;DHT22;23564;48.290;11.460;2023-03-11T04:38:24;1.30;99.90
36322;DHT22;23564;48.290;11.460;2023-03-11T04:40:49;1.40;99.90
36322;DHT22;23564;48.290;11.460;2023-03-11T04:43:15;1.40;99.90
36322;DHT22;23564;48.290;11.460;2023-03-11T04:45:41;1.40;99.90
36322;DHT22;23564;48.290;11.460;2023-03-11T04:48:07;1.40;99.90
36322;DHT22;23564;48.290;11.460;2023-03-11T04:50:33;1.40;99.90
36322;DHT22;23564;48.290;11.460;2023-03-11T04:52:59;1.40;99.90
36322;DHT22;23564;48.290;11.460;2023-03-11T04:55:25;1.40;99.90
36322;DHT22;23564;48.290;11.460;2023-03-11T04:57:50;1.50;99.90
36322;DHT22;23564;48.290;11.460;2023-03-11T05:00:16;1.50;99.90
36322;DHT22;23564;48.290;11.460;2023-03-11T05:02:47;1.50;99.90
36322;DHT22;23564;48.290;11.460;2023-03-11T05:05:12;1.50;99.90
36322;DHT22;23564;48.290;11.460;2023-03-11T05:07:38;1.50;99.90
36322;DHT22;23564;48.290;11.460;2023-03-11T05:10:04;1.50;99.90
36322;DHT22;23564;48.290;11.460;2023-03-11T05:12:30;1.50;99.90
36322;DHT22;23564;48.290;11.460;2023-03-11T05:14:56;1.40;99.90
36322;DHT22;23564;48.290;11.460;2023-03-11T05:17:21;1.40;99.90
36322;DHT22;23564;48.290;11.460;2023-03-11T05:19:47;1.40;99.90
36322;DHT22;23564;48.290;11.460;2023-03-11T05:22:13;1.40;99.90
36322;DHT22;23564;48.290;11.460;2023-03-11T05:24:38;1.40;99.90
36322;DHT22;23564;48.290;11.460;2023-03-11T05:27:04;1.30;99.90
36322;DHT22;23564;48.290;11.460;2023-03-11T05:29:30;1.30;99.90
36322;DHT22;23564;48.290;11.460;2023-03-11T05:31:56;1.20;99.90
36322;DHT22;23564;48.290;11.460;2023-03-11T05:34:22;1.20;99.90
36322;DHT22;23564;48.290;11.460;2023-03-11T05:36:47;1.20;99.90
36322;DHT22;23564;48.290;11.460;2023-03-11T05:39:13;1.20;1.00
36322;DHT22;23564;48.290;11.460;2023-03-11T05:41:39;1.10;1.00
36322;DHT22;23564;48.290;11.460;2023-03-11T05:44:05;1.10;23.60
36322;DHT22;23564;48.290;11.460;2023-03-11T05:46:30;1.10;1.00
36322;DHT22;23564;48.290;11.460;2023-03-11T05:48:58;1.10;1.00
36322;DHT22;23564;48.290;11.460;2023-03-11T05:51:24;1.10;1.00
36322;DHT22;23564;48.290;11.460;2023-03-11T05:53:49;1.10;1.00
36322;DHT22;23564;48.290;11.460;2023-03-11T05:56:19;1.10;1.00
36322;DHT22;23564;48.290;11.460;2023-03-11T05:58:45;1.10;99.90
36322;DHT22;23564;48.290;11.460;2023-03-11T06:01:12;1.10;99.90
36322;DHT22;23564;48.290;11.460;2023-03-11T06:03:39;1.00;99.90
36322;DHT22;23564;48.290;11.460;2023-03-11T06:06:07;1.10;1.00
36322;DHT22;23564;48.290;11.460;2023-03-11T06:08:34;1.10;99.90
36322;DHT22;23564;48.290;11.460;2023-03-11T06:11:09;1.10;9.90
36322;DHT22;23564;48.290;11.460;2023-03-11T06:13:36;1.20;1.00
36322;DHT22;23564;48.290;11.460;2023-03-11T06:16:03;1.20;49.40
36322;DHT22;23564;48.290;11.460;2023-03-11T06:18:28;1.20;5.80
36322;DHT22;23564;48.290;11.460;2023-03-11T06:20:57;1.20;1.00
36322;DHT22;23564;48.290;11.460;2023-03-11T06:23:23;1.10;99.90
36322;DHT22;23564;48.290;11.460;2023-03-11T06:26:05;1.20;99.90
36322;DHT22;23564;48.290;11.460;2023-03-11T06:28:33;1.10;99.90
36322;DHT22;23564;48.290;11.460;2023-03-11T06:31:10;1.10;99.90
36322;DHT22;23564;48.290;11.460;2023-03-11T06:33:36;1.10;99.90
36322;DHT22;23564;48.290;11.460;2023-03-11T06:36:03;1.20;99.90
36322;DHT22;23564;48.290;11.460;2023-03-11T06:38:29;1.20;99.90
36322;DHT22;23564;48.290;11.460;2023-03-11T06:41:01;1.20;98.40
36322;DHT22;23564;48.290;11.460;2023-03-11T06:43:28;1.20;99.90
36322;DHT22;23564;48.290;11.460;2023-03-11T06:45:55;1.20;81.50
36322;DHT22;23564;48.290;11.460;2023-03-11T06:48:21;1.20;47.30
36322;DHT22;23564;48.290;11.460;2023-03-11T06:50:57;1.30;33.40
36322;DHT22;23564;48.290;11.460;2023-03-11T06:53:24;1.40;37.70
36322;DHT22;23564;48.290;11.460;2023-03-11T06:58:25;1.50;1.00
36322;DHT22;23564;48.290;11.460;2023-03-11T07:00:50;1.50;1.00
36322;DHT22;23564;48.290;11.460;2023-03-11T07:03:16;1.50;1.00
36322;DHT22;23564;48.290;11.460;2023-03-11T07:05:42;1.50;1.00
36322;DHT22;23564;48.290;11.460;2023-03-11T07:08:07;1.50;1.00
36322;DHT22;23564;48.290;11.460;2023-03-11T07:10:33;1.60;1.00
36322;DHT22;23564;48.290;11.460;2023-03-11T07:13:00;1.60;1.00
36322;DHT22;23564;48.290;11.460;2023-03-11T07:15:25;1.60;1.00
36322;DHT22;23564;48.290;11.460;2023-03-11T07:17:51;1.60;1.00
36322;DHT22;23564;48.290;11.460;2023-03-11T07:20:17;1.60;1.00
36322;DHT22;23564;48.290;11.460;2023-03-11T07:22:42;1.60;1.00
36322;DHT22;23564;48.290;11.460;2023-03-11T07:25:08;1.60;1.00
36322;DHT22;23564;48.290;11.460;2023-03-11T07:27:33;1.60;1.00
36322;DHT22;23564;48.290;11.460;2023-03-11T07:30:00;1.60;1.00
36322;DHT22;23564;48.290;11.460;2023-03-11T07:32:26;1.70;1.00
36322;DHT22;23564;48.290;11.460;2023-03-11T07:34:52;1.60;1.00
36322;DHT22;23564;48.290;11.460;2023-03-11T07:37:18;1.50;1.00
36322;DHT22;23564;48.290;11.460;2023-03-11T07:39:43;1.40;1.00
36322;DHT22;23564;48.290;11.460;2023-03-11T07:42:09;1.30;1.00
36322;DHT22;23564;48.290;11.460;2023-03-11T07:44:34;1.40;1.00
36322;DHT22;23564;48.290;11.460;2023-03-11T07:47:04;1.40;1.00
36322;DHT22;23564;48.290;11.460;2023-03-11T07:49:30;1.40;1.00
36322;DHT22;23564;48.290;11.460;2023-03-11T07:51:56;1.40;1.00
36322;DHT22;23564;48.290;11.460;2023-03-11T07:54:22;1.30;1.00
36322;DHT22;23564;48.290;11.460;2023-03-11T07:56:47;1.40;1.00
36322;DHT22;23564;48.290;11.460;2023-03-11T07:59:13;1.40;1.00
36322;DHT22;23564;48.290;11.460;2023-03-11T08:01:39;1.40;1.00
36322;DHT22;23564;48.290;11.460;2023-03-11T08:04:07;1.50;1.00
36322;DHT22;23564;48.290;11.460;2023-03-11T08:06:35;1.40;1.00
36322;DHT22;23564;48.290;11.460;2023-03-11T08:09:04;1.60;1.00
36322;DHT22;23564;48.290;11.460;2023-03-11T08:11:30;1.70;1.00
36322;DHT22;23564;48.290;11.460;2023-03-11T08:13:56;1.80;1.00
36322;DHT22;23564;48.290;11.460;2023-03-11T08:16:22;1.80;1.00
36322;DHT22;23564;48.290;11.460;2023-03-11T08:18:49;2.00;1.00
36322;DHT22;23564;48.290;11.460;2023-03-11T08:21:22;2.10;1.00
36322;DHT22;23564;48.290;11.460;2023-03-11T08:23:49;2.20;1.00
36322;DHT22;23564;48.290;11.460;2023-03-11T08:26:17;2.20;1.00
36322;DHT22;23564;48.290;11.460;2023-03-11T08:28:43;2.30;99.90
36322;DHT22;23564;48.290;11.460;2023-03-11T08:31:21;2.30;99.90
36322;DHT22;23564;48.290;11.460;2023-03-11T08:33:51;2.20;99.90
36322;DHT22;23564;48.290;11.460;2023-03-11T08:36:17;2.10;99.90
36322;DHT22;23564;48.290;11.460;2023-03-11T08:38:43;2.10;99.90
36322;DHT22;23564;48.290;11.460;2023-03-11T08:41:09;2.20;99.90
36322;DHT22;23564;48.290;11.460;2023-03-11T08:43:35;2.20;99.90
36322;DHT22;23564;48.290;11.460;2023-03-11T08:46:02;2.10;99.90
36322;DHT22;23564;48.290;11.460;2023-03-11T08:48:28;2.00;99.90
36322;DHT22;23564;48.290;11.460;2023-03-11T08:50:54;2.00;99.90
36322;DHT22;23564;48.290;11.460;2023-03-11T08:53:23;2.00;99.90
36322;DHT22;23564;48.290;11.460;2023-03-11T08:55:50;2.00;99.90
36322;DHT22;23564;48.290;11.460;2023-03-11T08:58:16;2.10;99.90
36322;DHT22;23564;48.290;11.460;2023-03-11T09:00:41;2.20;99.90
36322;DHT22;23564;48.290;11.460;2023-03-11T09:03:07;2.30;99.90
36322;DHT22;23564;48.290;11.460;2023-03-11T09:05:33;2.40;99.90
36322;DHT22;23564;48.290;11.460;2023-03-11T09:07:58;2.30;99.90
36322;DHT22;23564;48.290;11.460;2023-03-11T09:10:24;2.40;99.90
36322;DHT22;23564;48.290;11.460;2023-03-11T09:12:50;2.50;99.90
36322;DHT22;23564;48.290;11.460;2023-03-11T09:15:18;2.60;99.90
36322;DHT22;23564;48.290;11.460;2023-03-11T09:17:44;2.80;99.90
36322;DHT22;23564;48.290;11.460;2023-03-11T09:20:14;2.90;99.90
36322;DHT22;23564;48.290;11.460;2023-03-11T09:22:40;3.00;99.90
36322;DHT22;23564;48.290;11.460;2023-03-11T09:25:06;3.20;99.90
36322;DHT22;23564;48.290;11.460;2023-03-11T09:27:31;3.40;99.90
36322;DHT22;23564;48.290;11.460;2023-03-11T09:29:57;3.60;99.90
36322;DHT22;23564;48.290;11.460;2023-03-11T09:32:23;3.60;20.30
36322;DHT22;23564;48.290;11.460;2023-03-11T09:34:48;3.50;14.20
36322;DHT22;23564;48.290;11.460;2023-03-11T09:37:14;3.50;48.00
36322;DHT22;23564;48.290;11.460;2023-03-11T09:39:39;3.40;19.50
36322;DHT22;23564;48.290;11.460;2023-03-11T09:44:52;3.20;1.00
36322;DHT22;23564;48.290;11.460;2023-03-11T09:55:00;3.40;1.00
36322;DHT22;23564;48.290;11.460;2023-03-11T09:57:31;3.50;1.00
36322;DHT22;23564;48.290;11.460;2023-03-11T09:59:59;3.40;1.00
36322;DHT22;23564;48.290;11.460;2023-03-11T10:02:25;3.30;1.00
36322;DHT22;23564;48.290;11.460;2023-03-11T10:04:59;3.20;9.30
36322;DHT22;23564;48.290;11.460;2023-03-11T10:07:30;3.10;1.00
36322;DHT22;23564;48.290;11.460;2023-03-11T10:09:58;3.10;17.40
36322;DHT22;23564;48.290;11.460;2023-03-11T10:15:18;3.30;7.00
36322;DHT22;23564;48.290;11.460;2023-03-11T10:26:08;3.40;1.00
36322;DHT22;23564;48.290;11.460;2023-03-11T10:29:24;3.10;1.00
36322;DHT22;23564;48.290;11.460;2023-03-11T10:31:49;2.90;1.00
36322;DHT22;23564;48.290;11.460;2023-03-11T10:34:20;3.00;1.00
36322;DHT22;23564;48.290;11.460;2023-03-11T10:36:59;3.30;18.70
36322;DHT22;23564;48.290;11.460;2023-03-11T10:39:29;3.50;1.00
36322;DHT22;23564;48.290;11.460;2023-03-11T10:42:04;3.60;1.00
36322;DHT22;23564;48.290;11.460;2023-03-11T10:44:36;3.70;1.00
36322;DHT22;23564;48.290;11.460;2023-03-11T10:47:02;3.60;1.00
36322;DHT22;23564;48.290;11.460;2023-03-11T10:49:28;3.60;1.00
36322;DHT22;23564;48.290;11.460;2023-03-11T10:51:54;3.60;1.00
36322;DHT22;23564;48.290;11.460;2023-03-11T10:56:55;3.60;1.00
36322;DHT22;23564;48.290;11.460;2023-03-11T10:59:24;3.70;1.00
36322;DHT22;23564;48.290;11.460;2023-03-11T11:02:26;3.70;1.00
36322;DHT22;23564;48.290;11.460;2023-03-11T11:07:41;3.90;1.00
36322;DHT22;23564;48.290;11.460;2023-03-11T11:10:26;3.80;1.00
36322;DHT22;23564;48.290;11.460;2023-03-11T11:12:58;3.80;1.00
36322;DHT22;23564;48.290;11.460;2023-03-11T11:15:28;3.70;1.00
36322;DHT22;23564;48.290;11.460;2023-03-11T11:18:02;3.80;1.00
36322;DHT22;23564;48.290;11.460;2023-03-11T11:20:29;3.70;1.00
36322;DHT22;23564;48.290;11.460;2023-03-11T11:22:58;3.90;1.00
36322;DHT22;23564;48.290;11.460;2023-03-11T11:27:59;4.10;1.00
36322;DHT22;23564;48.290;11.460;2023-03-11T11:30:26;4.10;1.00
36322;DHT22;23564;48.290;11.460;2023-03-11T11:32:52;4.00;1.00
36322;DHT22;23564;48.290;11.460;2023-03-11T11:35:22;4.20;1.00
36322;DHT22;23564;48.290;11.460;2023-03-11T11:37:54;4.30;1.00
36322;DHT22;23564;48.290;11.460;2023-03-11T11:40:27;4.50;1.00
36322;DHT22;23564;48.290;11.460;2023-03-11T11:43:06;4.70;1.00
36322;DHT22;23564;48.290;11.460;2023-03-11T11:45:41;4.80;1.00
36322;DHT22;23564;48.290;11.460;2023-03-11T11:50:59;4.80;1.00
36322;DHT22;23564;48.290;11.460;2023-03-11T11:53:33;4.60;1.00
36322;DHT22;23564;48.290;11.460;2023-03-11T11:56:02;4.50;1.00
36322;DHT22;23564;48.290;11.460;2023-03-11T11:58:29;4.70;1.00
36322;DHT22;23564;48.290;11.460;2023-03-11T12:06:37;4.90;1.00
36322;DHT22;23564;48.290;11.460;2023-03-11T12:09:23;4.80;1.00
36322;DHT22;23564;48.290;11.460;2023-03-11T12:12:07;4.70;99.90
36322;DHT22;23564;48.290;11.460;2023-03-11T12:14:51;4.70;99.90
36322;DHT22;23564;48.290;11.460;2023-03-11T12:17:20;4.70;99.90
36322;DHT22;23564;48.290;11.460;2023-03-11T12:20:05;4.70;99.90
36322;DHT22;23564;48.290;11.460;2023-03-11T12:25:27;5.00;99.90
36322;DHT22;23564;48.290;11.460;2023-03-11T12:33:47;4.70;99.90
36322;DHT22;23564;48.290;11.460;2023-03-11T12:36:33;4.40;99.90
36322;DHT22;23564;48.290;11.460;2023-03-11T12:39:01;4.10;99.90
36322;DHT22;23564;48.290;11.460;2023-03-11T12:41:37;4.00;99.90
36322;DHT22;23564;48.290;11.460;2023-03-11T12:44:27;3.90;99.90
36322;DHT22;23564;48.290;11.460;2023-03-11T12:49:25;3.70;99.90
36322;DHT22;23564;48.290;11.460;2023-03-11T12:54:40;3.80;99.90
36322;DHT22;23564;48.290;11.460;2023-03-11T13:08:23;4.00;1.00
36322;DHT22;23564;48.290;11.460;2023-03-11T13:10:51;3.90;99.90
36322;DHT22;23564;48.290;11.460;2023-03-11T13:13:37;3.80;99.90
36322;DHT22;23564;48.290;11.460;2023-03-11T13:18:43;3.70;1.00
36322;DHT22;23564;48.290;11.460;2023-03-11T13:29:36;3.80;99.90
36322;DHT22;23564;48.290;11.460;2023-03-11T13:32:34;3.80;99.90
36322;DHT22;23564;48.290;11.460;2023-03-11T13:41:02;3.80;99.90
36322;DHT22;23564;48.290;11.460;2023-03-11T13:43:43;4.00;99.90
36322;DHT22;23564;48.290;11.460;2023-03-11T13:46:13;4.10;99.90
36322;DHT22;23564;48.290;11.460;2023-03-11T13:48:46;4.20;99.90
36322;DHT22;23564;48.290;11.460;2023-03-11T13:51:24;4.20;99.90
36322;DHT22;23564;48.290;11.460;2023-03-11T13:53:58;4.20;99.90
36322;DHT22;23564;48.290;11.460;2023-03-11T13:56:29;4.30;99.90
36322;DHT22;23564;48.290;11.460;2023-03-11T13:59:15;4.30;99.90
36322;DHT22;23564;48.290;11.460;2023-03-11T14:01:50;4.30;99.90
36322;DHT22;23564;48.290;11.460;2023-03-11T14:04:22;4.30;99.90
36322;DHT22;23564;48.290;11.460;2023-03-11T14:06:50;4.30;99.90
36322;DHT22;23564;48.290;11.460;2023-03-11T14:09:21;4.40;99.90
36322;DHT22;23564;48.290;11.460;2023-03-11T14:11:48;4.40;99.90
36322;DHT22;23564;48.290;11.460;2023-03-11T14:14:50;4.40;99.90
36322;DHT22;23564;48.290;11.460;2023-03-11T14:17:15;4.30;99.90
36322;DHT22;23564;48.290;11.460;2023-03-11T14:19:42;4.30;99.90
36322;DHT22;23564;48.290;11.460;2023-03-11T14:22:09;4.30;99.90
36322;DHT22;23564;48.290;11.460;2023-03-11T14:24:35;4.20;99.90
36322;DHT22;23564;48.290;11.460;2023-03-11T14:27:07;4.20;99.90
36322;DHT22;23564;48.290;11.460;2023-03-11T14:29:35;4.20;99.90
36322;DHT22;23564;48.290;11.460;2023-03-11T14:34:41;4.00;99.90
36322;DHT22;23564;48.290;11.460;2023-03-11T14:37:35;4.00;99.90
36322;DHT22;23564;48.290;11.460;2023-03-11T14:40:03;4.00;99.90
36322;DHT22;23564;48.290;11.460;2023-03-11T14:42:39;4.10;99.90
36322;DHT22;23564;48.290;11.460;2023-03-11T14:45:13;4.20;99.90
36322;DHT22;23564;48.290;11.460;2023-03-11T14:47:48;4.10;99.90
36322;DHT22;23564;48.290;11.460;2023-03-11T14:50:19;4.10;99.90
36322;DHT22;23564;48.290;11.460;2023-03-11T14:55:39;4.10;99.90
36322;DHT22;23564;48.290;11.460;2023-03-11T15:01:13;4.20;99.90
36322;DHT22;23564;48.290;11.460;2023-03-11T15:04:11;4.20;99.90
36322;DHT22;23564;48.290;11.460;2023-03-11T15:06:41;4.20;99.90
36322;DHT22;23564;48.290;11.460;2023-03-11T15:09:10;4.20;99.90
36322;DHT22;23564;48.290;11.460;2023-03-11T15:11:45;4.20;99.90
36322;DHT22;23564;48.290;11.460;2023-03-11T15:16:46;4.10;99.90
36322;DHT22;23564;48.290;11.460;2023-03-11T15:21:59;4.00;99.90
36322;DHT22;23564;48.290;11.460;2023-03-11T15:24:28;3.90;99.90
36322;DHT22;23564;48.290;11.460;2023-03-11T15:27:02;3.90;99.90
36322;DHT22;23564;48.290;11.460;2023-03-11T15:29:29;3.90;99.90
36322;DHT22;23564;48.290;11.460;2023-03-11T15:31:55;3.90;99.90
36322;DHT22;23564;48.290;11.460;2023-03-11T15:34:29;3.90;99.90
36322;DHT22;23564;48.290;11.460;2023-03-11T15:36:59;3.80;99.90
36322;DHT22;23564;48.290;11.460;2023-03-11T15:47:23;3.80;99.90
36322;DHT22;23564;48.290;11.460;2023-03-11T15:49:49;3.80;99.90
36322;DHT22;23564;48.290;11.460;2023-03-11T15:52:16;3.70;99.90
36322;DHT22;23564;48.290;11.460;2023-03-11T15:54:43;3.70;99.90
36322;DHT22;23564;48.290;11.460;2023-03-11T15:57:20;3.70;99.90
36322;DHT22;23564;48.290;11.460;2023-03-11T15:59:47;3.60;99.90
36322;DHT22;23564;48.290;11.460;2023-03-11T16:02:22;3.70;99.90
36322;DHT22;23564;48.290;11.460;2023-03-11T16:04:48;3.70;99.90
36322;DHT22;23564;48.290;11.460;2023-03-11T16:07:14;3.70;99.90
36322;DHT22;23564;48.290;11.460;2023-03-11T16:09:40;3.70;99.90
36322;DHT22;23564;48.290;11.460;2023-03-11T16:12:19;3.70;99.90
36322;DHT22;23564;48.290;11.460;2023-03-11T16:14:46;3.70;99.90
36322;DHT22;23564;48.290;11.460;2023-03-11T16:17:13;3.70;99.90
36322;DHT22;23564;48.290;11.460;2023-03-11T16:19:46;3.60;99.90
36322;DHT22;23564;48.290;11.460;2023-03-11T16:22:31;3.50;99.90
36322;DHT22;23564;48.290;11.460;2023-03-11T16:24:58;3.40;99.90
36322;DHT22;23564;48.290;11.460;2023-03-11T16:27:24;3.40;99.90
36322;DHT22;23564;48.290;11.460;2023-03-11T16:29:50;3.30;99.90
36322;DHT22;23564;48.290;11.460;2023-03-11T16:32:15;3.30;99.90
36322;DHT22;23564;48.290;11.460;2023-03-11T16:34:41;3.30;99.90
36322;DHT22;23564;48.290;11.460;2023-03-11T16:37:07;3.30;99.90
36322;DHT22;23564;48.290;11.460;2023-03-11T16:39:34;3.30;99.90
36322;DHT22;23564;48.290;11.460;2023-03-11T16:42:00;3.30;99.90
36322;DHT22;23564;48.290;11.460;2023-03-11T16:44:26;3.30;99.90
36322;DHT22;23564;48.290;11.460;2023-03-11T16:46:52;3.30;99.90
36322;DHT22;23564;48.290;11.460;2023-03-11T16:49:17;3.20;99.90
36322;DHT22;23564;48.290;11.460;2023-03-11T16:51:43;3.20;99.90
36322;DHT22;23564;48.290;11.460;2023-03-11T16:54:08;3.10;99.90
36322;DHT22;23564;48.290;11.460;2023-03-11T16:56:34;3.10;99.90
36322;DHT22;23564;48.290;11.460;2023-03-11T16:59:00;3.10;99.90
36322;DHT22;23564;48.290;11.460;2023-03-11T17:01:26;3.00;99.90
36322;DHT22;23564;48.290;11.460;2023-03-11T17:03:52;3.00;99.90
36322;DHT22;23564;48.290;11.460;2023-03-11T17:06:19;2.90;99.90
36322;DHT22;23564;48.290;11.460;2023-03-11T17:08:44;2.90;99.90
36322;DHT22;23564;48.290;11.460;2023-03-11T17:11:21;2.90;99.90
36322;DHT22;23564;48.290;11.460;2023-03-11T17:13:48;2.80;99.90
36322;DHT22;23564;48.290;11.460;2023-03-11T17:16:14;2.80;99.90
36322;DHT22;23564;48.290;11.460;2023-03-11T17:18:40;2.80;99.90
36322;DHT22;23564;48.290;11.460;2023-03-11T17:21:11;2.70;99.90
36322;DHT22;23564;48.290;11.460;2023-03-11T17:23:37;2.70;1.00
36322;DHT22;23564;48.290;11.460;2023-03-11T17:26:11;2.70;1.00
36322;DHT22;23564;48.290;11.460;2023-03-11T17:28:37;2.80;99.90
36322;DHT22;23564;48.290;11.460;2023-03-11T17:31:04;2.70;99.90
36322;DHT22;23564;48.290;11.460;2023-03-11T17:33:32;2.70;99.90
36322;DHT22;23564;48.290;11.460;2023-03-11T17:36:02;2.70;99.90